Time;durP1;ratioP1;P1;durP2;ratioP2;P2;SDS_P1;SDS_P2;PMS_P1;PMS_P2;Temp;Humidity;BMP_temperature;BMP_pressure;BME280_temperature;BME280_humidity;BME280_pressure;Samples;Min_cycle;Max_cycle;Signal;HPM_P1;HPM_P2
2022/12/19 07:52:42;;;;;;;;;5.00;5.00;;;;;17.06;42.45;101473.50;5109661;27;45488;-83
2022/12/19 07:55:07;;;;;;;;;3.25;3.25;;;;;17.48;42.96;101480.44;5084788;27;45541;-73
2022/12/19 07:57:33;;;;;;;;;5.75;4.00;;;;;18.08;43.45;101483.31;5088340;27;45316;-81
2022/12/19 07:59:58;;;;;;;;;3.75;3.75;;;;;18.95;43.16;101524.31;5087525;27;45534;-82
2022/12/19 08:02:23;;;;;;;;;4.00;4.00;;;;;19.66;43.33;101530.53;5088459;27;45417;-79
2022/12/19 08:04:49;;;;;;;;;4.00;4.00;;;;;20.22;42.59;101531.41;5089646;27;45564;-78
2022/12/19 08:07:15;;;;;;;;;4.00;4.00;;;;;20.84;42.14;101547.00;5091192;27;45458;-78
2022/12/19 08:09:40;;;;;;;;;4.25;4.25;;;;;21.28;42.44;101536.91;5089846;27;45559;-84
2022/12/19 08:12:05;;;;;;;;;3.75;3.75;;;;;21.69;42.12;101533.38;5092618;27;46129;-81
2022/12/19 08:14:31;;;;;;;;;6.25;4.00;;;;;22.06;41.98;101532.81;5103947;27;45424;-78
2022/12/19 08:16:56;;;;;;;;;4.25;4.25;;;;;22.35;41.54;101531.97;5081520;27;45984;-76
2022/12/19 08:19:21;;;;;;;;;4.00;2.00;;;;;22.59;40.96;101540.69;5083011;27;45353;-78
2022/12/19 08:21:47;;;;;;;;;3.67;3.00;;;;;22.79;40.92;101541.53;5094075;27;46369;-76
2022/12/19 08:24:12;;;;;;;;;5.00;5.00;;;;;23.01;40.94;101542.22;5091998;27;45375;-76
2022/12/19 08:26:37;;;;;;;;;3.67;3.67;;;;;23.18;40.51;101532.50;5076074;27;45281;-76
2022/12/19 08:29:03;;;;;;;;;4.33;4.33;;;;;23.30;40.77;101535.88;5091739;27;45547;-76
2022/12/19 08:31:28;;;;;;;;;4.00;4.00;;;;;23.44;40.46;101545.41;5084023;27;46660;-77
2022/12/19 08:33:56;;;;;;;;;3.33;3.33;;;;;23.52;40.07;101539.25;5085821;27;45325;-77
2022/12/19 08:36:22;;;;;;;;;3.67;3.67;;;;;23.59;40.18;101531.38;5091865;27;45335;-74
2022/12/19 08:38:48;;;;;;;;;4.00;3.00;;;;;23.58;39.74;101513.41;5084531;27;45383;-84
2022/12/19 08:41:15;;;;;;;;;4.00;3.33;;;;;23.69;39.60;101524.91;5083239;27;46976;-77
2022/12/19 08:43:41;;;;;;;;;1.00;1.00;;;;;23.74;39.56;101526.31;5084024;27;46240;-76
2022/12/19 08:46:08;;;;;;;;;4.00;4.00;;;;;23.80;39.49;101534.66;5085117;27;45563;-78
2022/12/19 08:48:34;;;;;;;;;3.00;3.00;;;;;23.82;39.42;101535.38;5081276;27;45707;-84
2022/12/19 08:51:02;;;;;;;;;4.33;3.00;;;;;23.88;39.65;101528.50;5076892;27;45503;-85
2022/12/19 08:53:29;;;;;;;;;4.00;4.00;;;;;23.93;39.34;101537.03;5105624;27;45519;-82
2022/12/19 08:55:55;;;;;;;;;3.00;3.00;;;;;23.98;39.14;101539.28;5105276;27;45474;-82
2022/12/19 08:58:22;;;;;;;;;4.33;4.33;;;;;24.04;39.13;101537.81;5090467;27;45291;-80
2022/12/19 09:00:47;;;;;;;;;4.00;3.00;;;;;24.10;38.80;101541.81;5086904;27;46091;-79
2022/12/19 09:03:13;;;;;;;;;4.67;4.00;;;;;24.13;38.73;101527.94;5074036;27;45435;-80
2022/12/19 09:05:39;;;;;;;;;2.50;2.00;;;;;24.16;38.49;101530.34;5067546;27;45480;-80
2022/12/19 09:08:05;;;;;;;;;2.00;2.00;;;;;24.21;38.52;101525.31;5064843;27;46168;-83
2022/12/19 09:10:30;;;;;;;;;3.00;3.00;;;;;24.21;38.28;101525.31;5061792;27;46104;-82
2022/12/19 09:12:56;;;;;;;;;4.00;4.00;;;;;24.19;38.33;101525.47;5061535;27;45713;-81
2022/12/19 09:15:22;;;;;;;;;3.33;3.00;;;;;24.23;38.30;101533.31;5064433;28;45701;-77
2022/12/19 09:17:47;;;;;;;;;3.00;3.00;;;;;24.21;38.15;101528.88;5063873;27;45565;-80
2022/12/19 09:20:13;;;;;;;;;3.00;3.00;;;;;24.25;38.24;101540.28;5068506;27;48083;-84
2022/12/19 09:22:38;;;;;;;;;4.33;4.33;;;;;24.28;37.95;101534.53;5076428;27;45655;-77
2022/12/19 09:25:04;;;;;;;;;2.33;2.33;;;;;24.31;38.06;101536.06;5071899;27;45486;-76
2022/12/19 09:27:29;;;;;;;;;3.00;3.00;;;;;24.24;38.03;101530.44;5063207;27;45447;-76
2022/12/19 09:29:54;;;;;;;;;3.67;3.67;;;;;24.32;37.85;101540.53;5065476;27;46895;-77
2022/12/19 09:32:20;;;;;;;;;2.00;2.00;;;;;24.34;37.83;101543.91;5059063;27;45512;-78
2022/12/19 09:34:45;;;;;;;;;3.00;3.00;;;;;24.37;37.59;101551.75;5073063;27;45799;-78
2022/12/19 09:37:11;;;;;;;;;2.33;2.33;;;;;24.37;37.58;101543.63;5070890;27;45640;-75
2022/12/19 09:39:36;;;;;;;;;3.00;3.00;;;;;24.38;37.68;101548.03;5069649;27;46287;-77
2022/12/19 09:42:08;;;;;;;;;2.00;2.00;;;;;24.36;37.60;101541.88;5082485;27;46164;-75
2022/12/19 09:44:53;;;;;;;;;3.33;3.33;;;;;24.30;37.34;101542.50;5065258;27;45541;-76
2022/12/19 09:47:22;;;;;;;;;3.00;3.00;;;;;24.30;37.14;101554.22;5060315;27;45587;-76
2022/12/19 09:49:48;;;;;;;;;3.00;3.00;;;;;24.23;37.80;101542.28;5061498;28;47270;-76
2022/12/19 09:52:24;;;;;;;;;7.67;6.00;;;;;24.32;37.17;101564.94;5066129;28;45820;-77
2022/12/19 09:55:14;;;;;;;;;5.00;5.00;;;;;24.33;37.27;101566.63;5063106;27;45721;-77
2022/12/19 09:57:58;;;;;;;;;3.00;3.00;;;;;24.31;36.98;101561.34;5065450;28;45999;-76
2022/12/19 10:00:23;;;;;;;;;4.67;4.33;;;;;24.28;36.90;101564.38;5068006;28;46218;-77
2022/12/19 10:02:52;;;;;;;;;4.33;4.33;;;;;24.31;37.00;101568.63;5067668;28;45598;-76
2022/12/19 10:05:39;;;;;;;;;4.00;4.00;;;;;24.30;36.78;101565.09;5060475;28;45556;-77
2022/12/19 10:08:30;;;;;;;;;3.00;2.67;;;;;24.31;37.05;101552.34;5068825;28;45544;-76
2022/12/19 10:11:13;;;;;;;;;5.00;5.00;;;;;24.34;36.73;101562.91;5066169;28;47206;-74
2022/12/19 10:13:57;;;;;;;;;4.33;4.33;;;;;24.37;36.72;101553.59;5064503;27;45533;-78
2022/12/19 10:16:25;;;;;;;;;7.00;4.00;;;;;24.40;36.81;101556.03;5062232;28;47029;-77
2022/12/19 10:18:54;;;;;;;;;5.00;5.00;;;;;24.44;36.59;101552.00;5073338;28;45521;-77
2022/12/19 10:21:38;;;;;;;;;6.00;4.33;;;;;24.48;36.70;101553.34;5075990;27;45344;-77
2022/12/19 10:24:22;;;;;;;;;3.00;3.00;;;;;24.52;36.68;101552.03;5065880;28;45308;-76
2022/12/19 10:26:59;;;;;;;;;4.67;4.67;;;;;24.52;36.52;101541.19;5060685;28;45505;-76
2022/12/19 10:29:39;;;;;;;;;6.33;3.00;;;;;24.60;36.43;101548.56;5071336;27;45651;-78
